Latest Weather Observations for Cobar

IDN60801

Issued at 8:04 am EDT Tuesday 23 December 2014 (issued every 30 minutes, with the page automatically refreshed every 10 minutes)

About weather observations | Map of weather stations | Latest weather observations for NSW | Other Formats
Station Details ID: 048027 Name: COBAR MO Lat: -31.48 Lon: 145.83 Height: 260.0 m
Data from the previous 72 hours. | See also: Recent months at Cobar
Date/Time
EDT
Temp
°C
App
Temp
°C
Dew
Point
Rel
Hum
%
Delta-T
°C
Wind Press
QNH
hPa
Press
MSL
hPa
Rain
since 9 am
mm
Dir
 
Spd
km/h
Gust
km/h
Spd
kts
Gust
kts
23/07:30am 21.6 21.8 18.6 83 1.9 NNW 15 20 8 11 1012.6 - 0.0
23/07:24am 22.2 22.2 18.1 77 2.6 N 15 20 8 11 1012.2 - 0.0
23/07:00am 21.9 21.0 17.8 77 2.6 NE 19 28 10 15 1010.2 - 0.0
23/06:30am 21.6 21.0 17.6 78 2.5 NE 17 24 9 13 1009.8 - 0.0
23/06:00am 21.4 20.3 17.4 78 2.5 ENE 19 20 10 11 1009.3 1007.8 0.0
23/05:30am 21.4 20.6 17.2 77 2.6 ENE 17 24 9 13 1009.2 - 0.0
23/05:00am 21.6 20.7 16.9 74 2.9 ENE 17 24 9 13 1009.1 - 0.0
23/04:30am 21.9 20.9 16.5 71 3.3 ENE 17 22 9 12 1009.2 - 0.0
23/04:00am 22.3 20.5 16.1 68 3.8 ENE 20 26 11 14 1009.1 - 0.0
23/03:30am 22.8 20.5 15.6 64 4.4 ENE 22 32 12 17 1009.4 - 0.0
23/03:00am 23.2 20.7 15.1 60 4.9 ENE 22 32 12 17 1009.6 1008.1 0.0
23/02:30am 24.0 21.2 13.3 51 6.3 ENE 20 28 11 15 1010.1 - 0.0
23/02:00am 24.4 20.6 12.5 47 6.9 E 24 35 13 19 1010.2 - 0.0
23/01:30am 24.6 19.4 11.7 44 7.4 ENE 30 41 16 22 1010.8 - 0.0
23/01:29am 24.6 19.4 11.7 44 7.4 ENE 30 41 16 22 1010.8 - 0.0
23/01:00am 24.3 21.5 12.6 48 6.8 NE 19 22 10 12 1012.4 - 0.0
23/12:30am 25.0 23.0 12.7 46 7.2 ENE 15 19 8 10 1013.3 - 0.0
23/12:00am 27.5 24.0 8.9 31 10.3 SW 17 28 9 15 1014.2 1012.8 0.0
 
Date/Time
EDT
Temp
°C
App
Temp
°C
Dew
Point
Rel
Hum
%
Delta-T
°C
Wind Press
QNH
hPa
Press
MSL
hPa
Rain
since 9 am
mm
Dir
 
Spd
km/h
Gust
km/h
Spd
kts
Gust
kts
22/11:30pm 28.9 24.7 5.7 23 12.3 SSW 17 24 9 13 1013.6 - 0.0
22/11:00pm 29.4 28.9 12.1 34 10.2 SE 6 11 3 6 1012.8 - 0.0
22/10:30pm 29.4 28.8 12.3 34 10.1 N 7 13 4 7 1012.2 - 0.0
22/10:00pm 28.9 27.7 12.8 37 9.6 S 11 15 6 8 1011.4 - 0.0
22/09:30pm 28.8 27.8 13.5 39 9.2 SE 11 15 6 8 1010.8 - 0.0
22/09:00pm 28.8 27.7 14.4 41 8.8 ESE 13 17 7 9 1010.4 1009.0 0.0
22/08:30pm 29.1 27.9 13.9 39 9.2 SE 13 19 7 10 1010.3 - 0.0
22/08:00pm 29.4 28.2 13.9 38 9.4 S 13 19 7 10 1009.8 - 0.0
22/07:30pm 30.6 28.8 13.4 35 10.4 ESE 15 20 8 11 1009.0 - 0.0
22/07:00pm 31.3 29.6 12.4 31 11.3 ESE 13 20 7 11 1008.3 - 0.0
22/06:30pm 31.8 30.0 12.2 30 11.7 ESE 13 19 7 10 1008.1 - 0.0
22/06:00pm 32.4 30.6 11.0 27 12.6 E 11 15 6 8 1007.9 1006.5 0.0
22/05:30pm 31.5 29.7 12.2 30 11.5 E 13 17 7 9 1008.0 - 0.0
22/05:00pm 31.8 28.9 11.0 28 12.2 NE 17 20 9 11 1008.1 - 0.0
22/04:51pm 31.8 28.4 10.5 27 12.4 NNE 19 30 10 16 1008.4 - 0.0
22/04:46pm 31.8 28.1 10.0 26 12.6 NNE 20 30 11 16 1008.7 - 0.0
22/04:36pm 32.6 24.1 8.6 22 13.6 N 43 67 23 36 1008.8 - 0.0
22/04:31pm 34.0 25.7 6.1 17 15.3 N 39 67 21 36 1008.4 - 0.0
22/04:30pm 35.1 31.8 6.4 17 15.9 N 13 44 7 24 1008.4 - 0.0
22/04:00pm 35.7 33.4 7.3 17 16.0 N 9 13 5 7 1007.8 - 0.0
22/03:30pm 36.3 31.0 6.7 16 16.6 N 24 35 13 19 1008.0 - 0.0
22/03:00pm 37.1 32.5 6.3 15 17.2 N 20 33 11 18 1008.8 1007.3 0.0
22/02:30pm 37.3 32.9 6.4 15 17.3 NNE 19 32 10 17 1009.3 - 0.0
22/02:00pm 35.5 30.1 7.8 18 15.7 N 26 32 14 17 1009.8 - 0.0
22/01:30pm 36.0 32.4 9.7 20 15.4 NE 19 35 10 19 1010.4 - 0.0
22/01:00pm 34.7 30.3 10.4 22 14.3 NNE 24 33 13 18 1010.8 - 0.0
22/12:30pm 34.3 31.0 11.5 25 13.6 NE 20 28 11 15 1011.4 - 0.0
22/12:00pm 34.3 28.6 5.0 16 15.8 N 24 44 13 24 1011.5 1010.1 0.0
22/11:30am 34.6 31.6 12.0 25 13.6 N 19 26 10 14 1011.7 - 0.0
22/11:00am 33.5 30.5 12.4 27 12.7 NNE 20 35 11 19 1011.8 - 0.0
22/10:30am 31.1 27.3 12.5 32 11.1 NNE 24 37 13 20 1011.9 - 0.0
22/10:00am 30.2 25.6 12.4 33 10.6 NNE 28 37 15 20 1012.0 - 0.0
22/09:30am 30.1 25.8 12.0 32 10.7 NNE 26 35 14 19 1012.0 - 0.0
22/09:00am 28.9 24.2 12.1 35 9.9 NNE 28 41 15 22 1011.8 1010.4 0.0
22/08:30am 28.8 24.4 11.7 34 10.0 NE 26 37 14 20 1011.6 - 0.0
22/08:00am 28.3 23.4 11.4 35 9.8 NE 28 41 15 22 1011.3 - 0.0
22/07:30am 27.4 22.2 10.3 34 9.7 NE 28 37 15 20 1011.1 - 0.0
22/07:00am 26.8 22.9 9.4 33 9.7 NE 20 30 11 16 1010.7 - 0.0
22/06:30am 26.7 22.6 8.8 32 9.9 NE 20 28 11 15 1010.2 - 0.0
22/06:00am 26.9 22.8 8.6 31 10.1 NE 20 28 11 15 1010.1 1008.7 0.0
22/05:30am 27.2 23.1 8.0 29 10.5 NE 19 26 10 14 1009.7 - 0.0
22/05:00am 27.6 23.4 7.5 28 10.9 NE 19 26 10 14 1009.5 - 0.0
22/04:30am 27.9 23.4 6.9 26 11.3 NE 20 32 11 17 1009.5 - 0.0
22/04:00am 28.1 23.1 6.4 25 11.6 NE 22 30 12 16 1009.3 - 0.0
22/03:30am 28.7 23.2 6.0 23 12.1 NE 24 32 13 17 1009.6 - 0.0
22/03:00am 29.0 23.8 5.3 22 12.5 ENE 22 32 12 17 1009.9 1008.5 0.0
22/02:30am 27.4 22.8 3.8 22 12.0 ENE 17 20 9 11 1010.1 - 0.0
22/02:00am 26.6 22.7 3.2 22 11.7 E 13 15 7 8 1010.3 - 0.0
22/01:30am 27.7 23.7 2.7 20 12.5 E 13 19 7 10 1010.5 - 0.0
22/01:00am 29.3 24.3 1.3 16 13.8 ENE 17 20 9 11 1010.7 - 0.0
22/12:30am 29.4 24.7 1.1 16 13.9 ENE 15 20 8 11 1010.9 - 0.0
22/12:00am 29.4 25.1 1.1 16 13.9 ENE 13 17 7 9 1011.0 1009.6 0.0
 
Date/Time
EDT
Temp
°C
App
Temp
°C
Dew
Point
Rel
Hum
%
Delta-T
°C
Wind Press
QNH
hPa
Press
MSL
hPa
Rain
since 9 am
mm
Dir
 
Spd
km/h
Gust
km/h
Spd
kts
Gust
kts
21/11:30pm 29.6 25.5 2.3 17 13.7 E 13 17 7 9 1011.1 - 0.0
21/11:00pm 30.0 25.9 2.1 16 14.0 E 13 17 7 9 1011.3 - 0.0
21/10:30pm 29.5 27.0 4.9 21 12.9 E 7 11 4 6 1011.2 - 0.0
21/10:00pm 30.6 27.8 3.4 17 14.0 SE 7 7 4 4 1011.0 - 0.0
21/09:30pm 31.1 28.6 4.8 19 13.9 ESE 7 9 4 5 1010.9 - 0.0
21/09:00pm 31.7 28.9 2.9 16 14.8 SE 7 7 4 4 1010.7 1009.3 0.0
21/08:30pm 33.3 30.6 2.8 14 15.8 SSE 6 6 3 3 1010.5 - 0.0
21/08:00pm 34.7 32.4 2.7 13 16.7 SE 4 9 2 5 1010.2 - 0.0
21/07:30pm 35.4 33.1 0.7 11 17.6 SE 2 7 1 4 1009.8 - 0.0
21/07:00pm 34.8 32.2 0.9 11 17.2 ESE 4 7 2 4 1009.8 - 0.0
21/06:30pm 35.2 31.2 -2.2 9 18.1 ENE 9 15 5 8 1009.6 - 0.0
21/06:00pm 36.3 31.9 -2.4 8 18.8 E 11 19 6 10 1009.6 1008.1 0.0
21/05:30pm 36.7 33.2 -1.2 9 18.8 WSW 7 11 4 6 1009.7 - 0.0
21/05:00pm 35.8 30.6 -3.0 8 18.6 SSE 15 24 8 13 1010.1 - 0.0
21/04:30pm 36.2 32.0 -1.2 9 18.5 NE 11 17 6 9 1010.6 - 0.0
21/04:00pm 35.3 31.2 0.0 10 17.7 S 11 13 6 7 1011.0 - 0.0
21/03:30pm 35.3 29.9 -1.0 10 17.9 SE 17 20 9 11 1011.4 - 0.0
21/03:00pm 35.7 32.5 1.0 11 17.7 SSW 7 15 4 8 1011.7 1010.3 0.0
21/02:30pm 34.6 31.0 0.7 11 17.1 S 9 17 5 9 1012.3 - 0.0
21/02:00pm 34.0 29.5 -0.5 11 17.0 ESE 13 24 7 13 1012.7 - 0.0
21/01:30pm 33.7 29.4 -1.4 10 17.0 SSE 11 19 6 10 1013.1 - 0.0
21/01:00pm 33.0 29.0 0.8 13 16.1 SSW 11 19 6 10 1013.6 - 0.0
21/12:30pm 32.7 29.4 2.5 15 15.5 SSE 9 15 5 8 1014.1 - 0.0
21/12:00pm 32.4 28.9 3.3 16 15.1 E 11 19 6 10 1014.2 1012.8 0.0
21/11:30am 31.8 27.3 1.9 15 15.1 ENE 15 24 8 13 1014.4 - 0.0
21/11:00am 30.9 27.5 6.0 21 13.4 ENE 13 24 7 13 1014.5 - 0.0
21/10:30am 29.9 25.7 5.6 21 12.9 ENE 17 26 9 14 1014.6 - 0.0
21/10:00am 29.2 25.5 7.9 26 11.7 E 17 22 9 12 1014.8 - 0.0
21/09:30am 28.1 23.6 8.6 29 10.8 NE 22 28 12 15 1015.0 - 0.0
21/09:00am 27.7 23.8 8.5 30 10.6 ENE 19 24 10 13 1014.8 1013.4 0.0
21/08:30am 26.2 21.8 6.5 28 10.4 ENE 19 24 10 13 1014.8 - 0.0
21/08:00am 24.4 20.2 3.7 26 10.3 E 15 24 8 13 1014.6 - 0.0
21/07:30am 22.7 18.1 1.8 25 9.9 E 15 20 8 11 1014.3 - 0.0
21/07:00am 21.7 17.8 1.0 25 9.6 E 11 15 6 8 1014.2 - 0.0
21/06:30am 20.5 16.1 0.5 26 9.1 ESE 13 15 7 8 1013.8 - 0.0
21/06:00am 19.7 15.7 0.8 28 8.6 ESE 11 13 6 7 1013.3 1011.9 0.0
21/05:30am 20.5 16.2 0.8 27 9.0 E 13 17 7 9 1012.9 - 0.0
21/05:00am 21.0 16.2 0.0 24 9.5 E 15 19 8 10 1012.8 - 0.0
21/04:30am 20.5 16.1 0.5 26 9.1 ESE 13 15 7 8 1012.4 - 0.0
21/04:00am 20.5 16.1 0.5 26 9.1 ESE 13 13 7 7 1012.6 - 0.0
21/03:30am 20.6 16.7 1.0 27 9.0 ESE 11 13 6 7 1012.6 - 0.0
21/03:00am 20.7 17.4 2.2 29 8.7 ESE 9 11 5 6 1012.8 1011.3 0.0
21/02:30am 21.2 17.9 2.5 29 8.9 ESE 9 9 5 5 1012.8 - 0.0
21/02:00am 21.7 18.4 2.7 28 9.1 ESE 9 9 5 5 1013.0 - 0.0
21/01:30am 22.0 18.6 1.9 26 9.5 ESE 9 11 5 6 1013.0 - 0.0
21/01:00am 22.3 19.1 2.8 27 9.4 ESE 9 13 5 7 1013.2 - 0.0
21/12:30am 22.8 19.4 2.0 25 9.9 E 9 11 5 6 1013.6 - 0.0
21/12:00am 23.5 20.5 4.0 28 9.7 ESE 9 11 5 6 1013.9 1012.5 0.0
 
Date/Time
EDT
Temp
°C
App
Temp
°C
Dew
Point
Rel
Hum
%
Delta-T
°C
Wind Press
QNH
hPa
Press
MSL
hPa
Rain
since 9 am
mm
Dir
 
Spd
km/h
Gust
km/h
Spd
kts
Gust
kts
20/11:30pm 24.3 21.1 3.2 25 10.4 ESE 9 9 5 5 1014.0 - 0.0
20/11:00pm 25.3 22.5 3.4 24 10.9 SE 7 9 4 5 1014.1 - 0.0
20/10:30pm 26.7 23.2 1.2 19 12.3 SSE 9 13 5 7 1013.9 - 0.0
20/10:00pm 27.0 23.4 0.7 18 12.6 SSE 9 13 5 7 1013.7 - 0.0
20/09:30pm 27.8 24.2 0.6 17 13.1 S 9 13 5 7 1013.6 - 0.0
20/09:00pm 28.4 24.8 0.3 16 13.5 S 9 13 5 7 1013.4 1012.0 0.0
20/08:30pm 29.4 25.1 -2.0 13 14.6 S 11 15 6 8 1013.1 - 0.0
20/08:00pm 30.5 25.9 -3.8 10 15.6 S 11 17 6 9 1012.8 - 0.0
20/07:30pm 31.2 26.6 -4.3 10 16.1 SSE 11 17 6 9 1012.6 - 0.0
20/07:00pm 31.6 27.0 -4.2 9 16.3 S 11 17 6 9 1012.2 - 0.0
20/06:30pm 32.2 27.1 -5.6 8 16.9 SSW 13 22 7 12 1011.9 - 0.0
20/06:00pm 31.9 26.8 -4.9 9 16.6 S 13 26 7 14 1012.0 1010.6 0.0
20/05:30pm 32.1 27.2 -6.6 8 17.0 S 11 20 6 11 1012.0 - 0.0
20/05:00pm 31.7 26.4 -6.8 8 16.8 ESE 13 19 7 10 1012.1 - 0.0
20/04:30pm 31.8 28.0 -4.1 9 16.4 SSW 7 15 4 8 1012.6 - 0.0
20/04:00pm 31.3 25.8 -5.8 9 16.4 S 15 22 8 12 1013.0 - 0.0
20/03:30pm 31.2 25.9 -6.8 8 16.5 ESE 13 22 7 12 1013.4 - 0.0
20/03:00pm 30.7 25.6 -4.9 9 15.9 SE 13 22 7 12 1013.9 1012.5 0.0
20/02:30pm 30.4 25.4 -4.7 10 15.7 SE 13 20 7 11 1014.2 - 0.0
20/02:00pm 30.0 24.9 -4.9 10 15.5 ESE 13 22 7 12 1014.8 - 0.0
20/01:30pm 28.5 24.0 -3.1 12 14.3 SE 11 19 6 10 1015.3 - 0.0
20/01:00pm 28.2 22.0 -4.5 11 14.4 ESE 19 26 10 14 1015.7 - 0.0
20/12:30pm 27.6 23.1 -3.6 12 13.9 SE 11 20 6 11 1016.2 - 0.0
20/12:00pm 27.1 22.5 -4.1 12 13.7 WSW 11 20 6 11 1016.6 1015.2 0.0
20/11:30am 26.8 22.3 -3.4 13 13.4 SSW 11 20 6 11 1016.8 - 0.0
20/11:00am 26.8 21.8 -4.4 12 13.6 SE 13 20 7 11 1016.9 - 0.0
20/10:30am 24.8 20.4 -2.4 16 12.1 SSE 11 19 6 10 1017.1 - 0.0
20/10:00am 24.3 19.2 -2.3 17 11.8 ESE 15 26 8 14 1017.2 - 0.0
20/09:30am 24.0 19.2 -2.6 17 11.7 E 13 20 7 11 1017.6 - 0.0
20/09:00am 23.4 18.4 -1.4 19 11.1 ESE 15 22 8 12 1017.7 1016.3 0.0
20/08:30am 22.1 16.6 -2.2 19 10.6 ESE 17 24 9 13 1017.3 - 0.0

Other Formats:

Comma delimited format used in spreadsheet applications
http://www.bom.gov.au/fwo/IDN60801/IDN60801.94711.axf

JavaScript Object Notation format (JSON) in row-major order
http://www.bom.gov.au/fwo/IDN60801/IDN60801.94711.json